Sarcobatus Flat, Nevada Weather observations

Data are for observation ending at time listed.
 Day   Time    Ave.   Ave.  Ave.  Vector   Max.   Stn.    Total    Solar   Ave.  
  of    of     Air    Rel.  Wind   Wind    Wind   Baro.  Precip.   Rad.    Soil  
Year   Day     Temp.  Hum.  Speed  Dir.    Gust   Pres.                    Temp. 
2015   (PST)    F      %     mph   deg.    mph     mb.     in.     W/m2     F   
------------------------------------------------------------------------------
  28    6:10   33.8    96    4.7   347      5.7   886.9    0.00       0    999.0
  28    6:20   33.8    96    3.7   347      5.8   886.9    0.00       0    999.0
  28    6:30   34.2    96    6.0   331      8.1   887.2    0.00       0    999.0
  28    6:40   34.8    94    5.7   331      7.7   887.4    0.00       0    999.0
  28    6:50   34.8    94    8.0   324      9.3   887.3    0.00       1    999.0
  28    7:00   35.0    93    6.9   332      9.9   887.3    0.00       2    999.0
  28    7:10   34.7    93    6.8   359      9.3   887.4    0.00       6    999.0
  28    7:20   34.8    94    6.4   348      8.2   887.3    0.00      14    999.0
  28    7:30   34.8    94    7.6   340      9.4   887.2    0.00      25    999.0
  28    7:40   35.3    93    8.5   335     11.7   887.1    0.00      43    999.0
  28    7:50   36.3    92   10.4   330     13.4   887.1    0.00      63    999.0
  28    8:00   37.1    90   10.3   337     13.7   887.2    0.00     107    999.0
  28    8:10   38.1    89    9.4   337     12.4   887.3    0.00     247    999.0
  28    8:20   39.4    88    9.1   342     12.5   887.3    0.00     214    999.0
  28    8:30   40.8    87    8.6   337     12.0   887.2    0.00     193    999.0
  28    8:40   41.7    84    7.6   337     10.7   887.2    0.00     191    999.0
  28    8:50   42.4    84    7.4   343      9.6   887.2    0.00     202    999.0
  28    9:00   43.4    83    7.5   340      9.9   887.2    0.00     243    999.0
  28    9:10   44.9    79    9.0   333     11.8   887.2    0.00     282    999.0
  28    9:20   45.7    75    8.6   328     11.4   887.3    0.00     317    999.0
  28    9:30   46.4    74    8.5   325     11.4   887.3    0.00     323    999.0
  28    9:40   47.0    73    7.6   330      9.9   887.3    0.00     380    999.0
  28    9:50   48.4    66    8.3   329     11.0   887.4    0.00     395    999.0
  28   10:00   49.7    63    7.0   332      9.9   887.2    0.00     492    999.0
  28   10:10   50.3    61    8.4   323     11.8   887.2    0.00     497    999.0
  28   10:20   50.8    59    9.2   327     12.9   887.1    0.00     500    999.0
  28   10:30   51.7    58    8.2   322     12.6   887.1    0.00     480    999.0
  28   10:40   51.5    57    8.3   332     11.6   886.9    0.00     483    999.0
  28   10:50   52.2    56    6.1   334      9.6   886.8    0.00     484    999.0
  28   11:00   52.5    56    4.5   348      8.3   886.8    0.00     474    999.0
  28   11:10   53.3    54    5.9    34     12.0   886.6    0.00     509    999.0
  28   11:20   54.1    51    6.3    32     12.7   886.6    0.00     493    999.0
  28   11:30   54.3    50    6.0    33     11.0   886.4    0.00     485    999.0
  28   11:40   54.5    49    4.3    20      8.3   886.2    0.00     486    999.0
  28   11:50   54.8    49    5.7    41     10.5   886.0    0.00     552    999.0
  28   12:00   55.5    49    5.2    37      9.3   885.9    0.00     629    999.0
  28   12:10   55.5    47    5.5    28     10.4   885.7    0.00     539    999.0
  28   12:20   55.3    47    5.1    19      9.5   885.6    0.00     557    999.0
  28   12:30   55.7    46    4.7     7      8.8   885.5    0.00     609    999.0
  28   12:40   55.9    45    4.8     8      9.4   885.3    0.00     579    999.0
  28   12:50   56.0    45    6.4    25     11.0   885.0    0.00     569    999.0
  28   13:00   56.8    45    5.4    36     11.5   884.9    0.00     565    999.0
  28   13:10   56.9    45    6.2    30     11.3   884.7    0.00     541    999.0
  28   13:20   56.9    44    4.4    33     10.2   884.6    0.00     548    999.0
  28   13:30   56.8    43    4.4   332      8.0   884.5    0.00     542    999.0
  28   13:40   56.8    43    6.1   341     12.7   884.3    0.00     493    999.0
  28   13:50   57.5    42    6.5   341     10.5   884.2    0.00     479    999.0
  28   14:00   57.5    41    6.7   352     10.7   884.2    0.00     478    999.0
  28   14:10   58.1    41    5.4     8     11.0   884.2    0.00     463    999.0
  28   14:20   58.0    40    4.2     5      8.0   884.2    0.00     430    999.0
  28   14:30   57.7    40    5.0    18     10.0   884.2    0.00     373    999.0
  28   14:40   57.8    41    6.1     8     11.6   884.3    0.00     289    999.0
  28   14:50   57.7    40    5.1     5     11.3   884.3    0.00     286    999.0
  28   15:00   57.5    41    6.4     2     11.4   884.4    0.00     264    999.0
  28   15:10   57.6    41    5.3    21      9.7   884.4    0.00     221    999.0
  28   15:20   57.3    41    4.9     9      8.8   884.4    0.00     198    999.0
  28   15:30   57.1    42    6.6   355     11.8   884.3    0.00     213    999.0
  28   15:40   57.4    43    4.5     9      9.3   884.3    0.00     166    999.0
  28   15:50   57.0    43    5.4    19      8.6   884.3    0.00     129    999.0
  28   16:00   56.5    44    3.9    16      7.1   884.4    0.00     101    999.0
  28   16:10   56.3    44    4.0     7      7.7   884.4    0.00      79    999.0
  28   16:20   56.0    46    3.2    14      6.9   884.4    0.00      69    999.0
  28   16:30   55.6    46    4.2     6      7.5   884.5    0.00      52    999.0
  28   16:40   55.1    47    4.0     4      6.9   884.6    0.00      32    999.0
  28   16:50   54.5    49    4.4   360      7.2   884.7    0.00      19    999.0
  28   17:00   53.8    51    4.1   358      5.6   884.7    0.00      10    999.0
  28   17:10   52.6    58    3.8   346      4.3   884.7    0.00       3    999.0
  28   17:20   51.5    62    4.0   337      5.0   884.7    0.00       1    999.0
  28   17:30   50.8    64    3.9   334      4.5   884.7    0.00       0    999.0
  28   17:40   50.1    66    3.4   346      4.5   884.7    0.00       0    999.0
  28   17:50   49.3    69    3.9   354      5.3   884.8    0.00       0    999.0
  28   18:00   48.9    70    4.1   336      5.0   884.8    0.00       0    999.0
  28   18:10   48.1    73    3.9   337      4.9   885.0    0.00       0    999.0
  28   18:20   47.6    74    4.7   322      5.4   885.0    0.00       0    999.0
  28   18:30   47.4    74    4.7   329      5.6   885.1    0.00       0    999.0
  28   18:40   47.3    74    5.5   323      6.6   885.1    0.00       0    999.0
  28   18:50   47.4    73    5.2   326      6.6   885.1    0.00       0    999.0
  28   19:00   47.0    74    4.8   333      5.5   885.1    0.00       0    999.0
  28   19:10   46.8    75    6.0   337      7.7   885.0    0.00       0    999.0
  28   19:20   46.8    75    6.8   332      8.4   885.1    0.00       0    999.0
  28   19:30   46.8    75    5.7   330      7.1   885.2    0.00       0    999.0
  28   19:40   46.2    77    5.7   309      6.9   885.2    0.00       0    999.0
  28   19:50   45.8    78    7.1   321     10.1   885.3    0.00       0    999.0
  28   20:00   48.6    64    8.1   347     12.1   885.3    0.00       0    999.0
  28   20:10   49.6    61    5.0     0     11.0   885.4    0.00       0    999.0
  28   20:20   48.2    67    4.4   347      5.4   885.5    0.00       0    999.0
  28   20:30   47.9    67    4.4   347      6.3   885.6    0.00       0    999.0
  28   20:40   47.8    67    4.8   349      6.7   885.6    0.00       0    999.0
  28   20:50   46.6    71    4.1   336      5.0   885.6    0.00       0    999.0
  28   21:00   45.4    76    3.2   340      4.3   885.7    0.00       0    999.0
  28   21:10   44.8    77    2.3    28      4.2   885.7    0.00       0    999.0
  28   21:20   45.0    76    1.6    43      3.9   885.8    0.00       0    999.0
  28   21:30   44.6    78    2.8   339      4.7   885.8    0.00       0    999.0
  28   21:40   45.0    76    3.2    18      4.7   885.8    0.00       0    999.0
  28   21:50   45.0    77    4.7   348      5.7   885.8    0.00       0    999.0
  28   22:00   45.0    76    3.0   358      5.1   885.8    0.00       0    999.0
  28   22:10   44.9    76    2.3    42      3.8   885.9    0.00       0    999.0
  28   22:20   44.8    76    1.6   357      2.5   886.0    0.00       0    999.0
  28   22:30   44.2    78    2.1   345      4.5   886.0    0.00       0    999.0
  28   22:40   44.7    76    1.4   338      2.3   886.0    0.00       0    999.0
  28   22:50   43.9    78    1.6   314      2.9   886.0    0.00       0    999.0
  28   23:00   43.3    79    0.8     2      2.0   886.0    0.00       0    999.0
  28   23:10   43.0    80    1.5   335      3.1   886.0    0.00       0    999.0
  28   23:20   42.3    82    2.3     0      3.7   885.9    0.00       0    999.0
  28   23:30   42.2    83    3.0    19      4.6   885.9    0.00       0    999.0
  28   23:40   43.3    80    3.3    18      4.4   885.8    0.00       0    999.0
  28   23:50   43.9    77    3.0   347      4.1   885.7    0.00       0    999.0
  29    0:00   43.0    78    3.2   345      4.3   885.6    0.00       0    999.0
  29    0:10   42.8    78    2.1    12      2.9   885.4    0.00       0    999.0
  29    0:20   42.3    81    4.1   359      6.4   885.3    0.00       0    999.0
  29    0:30   43.4    77    2.2    24      3.2   885.2    0.00       0    999.0
  29    0:40   43.9    75    2.8   301      5.0   885.1    0.00       0    999.0
  29    0:50   43.4    77    2.3   231      4.7   885.1    0.00       0    999.0
  29    1:00   44.9    72    4.1   350      8.8   885.1    0.00       0    999.0
  29    1:10   45.7    69    3.9    25      7.3   885.2    0.00       0    999.0
  29    1:20   45.9    68    2.0    29      4.5   885.2    0.00       0    999.0
  29    1:30   44.6    72    5.8   333     10.2   885.1    0.00       0    999.0
  29    1:40   43.5    75    8.5   339     10.8   884.9    0.00       0    999.0
  29    1:50   43.1    77    9.2   340     11.9   884.9    0.00       0    999.0
  29    2:00   43.1    76    9.6   339     13.0   884.9    0.00       0    999.0
  29    2:10   43.2    76    9.6   340     14.1   884.8    0.00       0    999.0
  29    2:20   43.1    76   10.4   336     12.9   884.8    0.00       0    999.0
  29    2:30   42.5    78   11.6   331     14.4   884.7    0.00       0    999.0
  29    2:40   43.0    76   11.9   333     14.7   884.6    0.00       0    999.0
  29    2:50   43.6    75   10.2   339     13.3   884.5    0.00       0    999.0
  29    3:00   44.6    72    9.7   338     12.9   884.5    0.00       0    999.0
  29    3:10   44.5    72    9.6   335     12.2   884.4    0.00       0    999.0
  29    3:20   44.6    72    9.6   330     12.6   884.4    0.00       0    999.0
  29    3:30   45.2    69   12.1   330     17.6   884.4    0.00       0    999.0
  29    3:40   45.5    68   11.4   334     15.4   884.5    0.00       0    999.0
  29    3:50   45.4    69   11.0   337     14.4   884.5    0.00       0    999.0
  29    4:00   45.4    69    7.7   344     12.1   884.5    0.00       0    999.0
  29    4:10   45.4    69    8.8   337     13.4   884.5    0.00       0    999.0
  29    4:20   45.5    69    7.9   340     13.7   884.5    0.00       0    999.0
  29    4:30   45.4    69    8.9   342     11.8   884.4    0.00       0    999.0
  29    4:40   45.7    68    7.4   349     10.8   884.4    0.00       0    999.0
  29    4:50   46.2    66    9.1   347     12.3   884.4    0.00       0    999.0
  29    5:00   45.9    67    7.4   345     10.7   884.4    0.00       0    999.0
  29    5:10   46.3    66    6.4   350     10.4   884.5    0.00       0    999.0
  29    5:20   47.7    62    5.8   359     11.1   884.5    0.00       0    999.0
  29    5:30   46.5    66    6.1   359     10.1   884.6    0.00       0    999.0
  29    5:40   45.4    69    4.2   355      9.6   884.6    0.00       0    999.0
  29    5:50   46.3    66    4.4     1      8.0   884.6    0.00       0    999.0
  29    6:00   46.4    66    5.7   344     11.7   884.6    0.00       0    999.0

Return to Sarcobatus Flat, Nevada graphs page.


Western Regional Climate Center,wrcc@dri.edu